sensor_id;sensor_type;location;lat;lon;timestamp;pressure;altitude;pressure_sealevel;temperature;humidity
64388;BME280;50709;52.648;4.764;2023-05-01T00:00:21;101924.59;;;17.34;56.29
64388;BME280;50709;52.648;4.764;2023-05-01T00:02:47;101929.13;;;17.18;56.46
64388;BME280;50709;52.648;4.764;2023-05-01T00:05:12;101922.06;;;17.21;56.71
64388;BME280;50709;52.648;4.764;2023-05-01T00:07:37;101907.25;;;17.02;56.94
64388;BME280;50709;52.648;4.764;2023-05-01T00:10:03;101930.19;;;16.93;57.16
64388;BME280;50709;52.648;4.764;2023-05-01T00:12:28;101924.88;;;16.98;57.28
64388;BME280;50709;52.648;4.764;2023-05-01T00:14:56;101927.47;;;17.07;57.68
64388;BME280;50709;52.648;4.764;2023-05-01T00:17:21;101913.34;;;17.11;56.86
64388;BME280;50709;52.648;4.764;2023-05-01T00:19:52;101901.94;;;17.08;56.84
64388;BME280;50709;52.648;4.764;2023-05-01T00:22:17;101904.59;;;17.03;57.11
64388;BME280;50709;52.648;4.764;2023-05-01T00:24:42;101913.53;;;16.80;57.99
64388;BME280;50709;52.648;4.764;2023-05-01T00:27:08;101896.84;;;16.77;57.96
64388;BME280;50709;52.648;4.764;2023-05-01T00:29:33;101898.69;;;16.62;57.97
64388;BME280;50709;52.648;4.764;2023-05-01T00:31:59;101903.03;;;16.71;58.19
64388;BME280;50709;52.648;4.764;2023-05-01T00:34:24;101901.25;;;16.73;57.92
64388;BME280;50709;52.648;4.764;2023-05-01T00:36:50;101890.81;;;16.59;58.89
64388;BME280;50709;52.648;4.764;2023-05-01T00:39:15;101882.03;;;16.59;57.97
64388;BME280;50709;52.648;4.764;2023-05-01T00:41:42;101884.63;;;16.63;58.25
64388;BME280;50709;52.648;4.764;2023-05-01T00:44:07;101883.69;;;16.71;58.45
64388;BME280;50709;52.648;4.764;2023-05-01T00:46:33;101886.34;;;16.69;58.35
64388;BME280;50709;52.648;4.764;2023-05-01T00:48:59;101874.09;;;16.62;58.12
64388;BME280;50709;52.648;4.764;2023-05-01T00:51:28;101875.91;;;16.52;58.16
64388;BME280;50709;52.648;4.764;2023-05-01T00:53:54;101872.41;;;16.48;58.57
64388;BME280;50709;52.648;4.764;2023-05-01T00:56:20;101865.44;;;16.41;58.83
64388;BME280;50709;52.648;4.764;2023-05-01T00:58:49;101864.50;;;16.48;58.58
64388;BME280;50709;52.648;4.764;2023-05-01T01:01:19;101856.59;;;16.47;58.75
64388;BME280;50709;52.648;4.764;2023-05-01T01:03:46;101859.38;;;16.25;58.79
64388;BME280;50709;52.648;4.764;2023-05-01T01:14:40;101854.91;;;16.37;58.59
64388;BME280;50709;52.648;4.764;2023-05-01T01:17:23;101841.84;;;16.20;58.71
64388;BME280;50709;52.648;4.764;2023-05-01T01:23:30;101839.22;;;16.13;59.20
64388;BME280;50709;52.648;4.764;2023-05-01T01:35:27;101813.66;;;16.28;58.97
64388;BME280;50709;52.648;4.764;2023-05-01T01:38:19;101807.44;;;16.41;58.93
64388;BME280;50709;52.648;4.764;2023-05-01T01:40:55;101793.44;;;16.28;58.52
64388;BME280;50709;52.648;4.764;2023-05-01T01:43:24;101802.34;;;16.10;59.03
64388;BME280;50709;52.648;4.764;2023-05-01T01:45:59;101794.47;;;16.09;59.06
64388;BME280;50709;52.648;4.764;2023-05-01T01:48:30;101802.31;;;16.13;59.36
64388;BME280;50709;52.648;4.764;2023-05-01T01:50:57;101776.78;;;16.22;58.46
64388;BME280;50709;52.648;4.764;2023-05-01T01:53:25;101750.56;;;16.00;59.32
64388;BME280;50709;52.648;4.764;2023-05-01T01:55:53;101786.47;;;16.17;58.95
64388;BME280;50709;52.648;4.764;2023-05-01T01:58:20;101779.53;;;16.05;59.29
64388;BME280;50709;52.648;4.764;2023-05-01T02:00:51;101782.19;;;16.00;59.93
64388;BME280;50709;52.648;4.764;2023-05-01T02:03:18;101774.34;;;15.94;59.05
64388;BME280;50709;52.648;4.764;2023-05-01T02:05:45;101773.31;;;16.17;59.61
64388;BME280;50709;52.648;4.764;2023-05-01T02:08:12;101782.06;;;16.22;59.07
64388;BME280;50709;52.648;4.764;2023-05-01T02:10:40;101778.56;;;16.17;59.25
64388;BME280;50709;52.648;4.764;2023-05-01T02:13:07;101763.75;;;15.98;59.18
64388;BME280;50709;52.648;4.764;2023-05-01T02:15:33;101768.97;;;16.08;59.29
64388;BME280;50709;52.648;4.764;2023-05-01T02:18:02;101759.38;;;15.96;59.16
64388;BME280;50709;52.648;4.764;2023-05-01T02:20:29;101759.50;;;15.65;59.08
64388;BME280;50709;52.648;4.764;2023-05-01T02:22:57;101749.75;;;15.90;59.45
64388;BME280;50709;52.648;4.764;2023-05-01T02:25:23;101748.84;;;15.97;58.86
64388;BME280;50709;52.648;4.764;2023-05-01T02:27:55;101751.38;;;16.10;58.59
64388;BME280;50709;52.648;4.764;2023-05-01T02:30:20;101746.16;;;16.01;59.03
64388;BME280;50709;52.648;4.764;2023-05-01T02:32:47;101746.06;;;16.22;58.80
64388;BME280;50709;52.648;4.764;2023-05-01T02:35:13;101733.81;;;16.12;58.61
64388;BME280;50709;52.648;4.764;2023-05-01T02:37:38;101722.34;;;16.19;58.74
64388;BME280;50709;52.648;4.764;2023-05-01T02:40:04;101724.97;;;16.21;58.52
64388;BME280;50709;52.648;4.764;2023-05-01T02:42:33;101733.84;;;16.10;58.57
64388;BME280;50709;52.648;4.764;2023-05-01T02:45:05;101706.72;;;15.88;58.49
64388;BME280;50709;52.648;4.764;2023-05-01T02:47:36;101702.47;;;15.55;58.64
64388;BME280;50709;52.648;4.764;2023-05-01T02:50:02;101729.66;;;15.68;59.85
64388;BME280;50709;52.648;4.764;2023-05-01T02:52:28;101712.09;;;15.65;59.57
64388;BME280;50709;52.648;4.764;2023-05-01T02:54:54;101713.00;;;15.62;59.79
64388;BME280;50709;52.648;4.764;2023-05-01T02:57:21;101691.13;;;15.50;59.59
64388;BME280;50709;52.648;4.764;2023-05-01T02:59:47;101708.63;;;15.63;59.26
64388;BME280;50709;52.648;4.764;2023-05-01T03:02:14;101706.97;;;15.37;59.07
64388;BME280;50709;52.648;4.764;2023-05-01T03:04:41;101706.94;;;15.45;59.94
64388;BME280;50709;52.648;4.764;2023-05-01T03:07:26;101705.25;;;15.28;59.86
64388;BME280;50709;52.648;4.764;2023-05-01T03:09:59;101709.72;;;14.91;60.24
64388;BME280;50709;52.648;4.764;2023-05-01T03:12:25;101668.44;;;15.16;60.23
64388;BME280;50709;52.648;4.764;2023-05-01T03:14:50;101700.94;;;15.03;60.34
64388;BME280;50709;52.648;4.764;2023-05-01T03:17:16;101687.78;;;15.06;60.47
64388;BME280;50709;52.648;4.764;2023-05-01T03:19:41;101676.44;;;14.26;59.65
64388;BME280;50709;52.648;4.764;2023-05-01T03:22:07;101663.19;;;15.14;60.49
64388;BME280;50709;52.648;4.764;2023-05-01T03:24:32;101700.69;;;15.68;59.80
64388;BME280;50709;52.648;4.764;2023-05-01T03:26:58;101687.53;;;15.60;59.81
64388;BME280;50709;52.648;4.764;2023-05-01T03:29:23;101689.28;;;15.62;59.69
64388;BME280;50709;52.648;4.764;2023-05-01T03:32:09;101686.69;;;15.58;59.39
64388;BME280;50709;52.648;4.764;2023-05-01T03:34:35;101689.28;;;15.66;59.41
64388;BME280;50709;52.648;4.764;2023-05-01T03:37:00;101683.13;;;15.67;59.33
64388;BME280;50709;52.648;4.764;2023-05-01T03:39:26;101675.25;;;15.63;59.50
64388;BME280;50709;52.648;4.764;2023-05-01T03:41:52;101678.78;;;15.59;59.56
64388;BME280;50709;52.648;4.764;2023-05-01T03:44:17;101680.53;;;15.57;59.35
64388;BME280;50709;52.648;4.764;2023-05-01T03:46:54;101663.97;;;15.41;59.62
64388;BME280;50709;52.648;4.764;2023-05-01T03:49:19;101670.94;;;15.48;59.14
64388;BME280;50709;52.648;4.764;2023-05-01T03:51:46;101665.72;;;15.41;59.83
64388;BME280;50709;52.648;4.764;2023-05-01T03:54:32;101671.84;;;15.40;59.42
64388;BME280;50709;52.648;4.764;2023-05-01T03:56:57;101660.41;;;15.44;59.95
64388;BME280;50709;52.648;4.764;2023-05-01T03:59:23;101677.97;;;15.48;59.46
64388;BME280;50709;52.648;4.764;2023-05-01T04:02:09;101659.38;;;15.74;59.49
64388;BME280;50709;52.648;4.764;2023-05-01T04:04:34;101653.34;;;15.58;59.70
64388;BME280;50709;52.648;4.764;2023-05-01T04:07:00;101675.41;;;15.37;59.61
64388;BME280;50709;52.648;4.764;2023-05-01T04:09:45;101663.13;;;15.36;59.77
64388;BME280;50709;52.648;4.764;2023-05-01T04:12:12;101669.25;;;15.37;59.50
64388;BME280;50709;52.648;4.764;2023-05-01T04:14:37;101664.09;;;15.07;60.19
64388;BME280;50709;52.648;4.764;2023-05-01T04:17:03;101666.69;;;15.20;60.23
64388;BME280;50709;52.648;4.764;2023-05-01T04:19:28;101664.03;;;15.24;60.03
64388;BME280;50709;52.648;4.764;2023-05-01T04:21:54;101658.75;;;15.26;60.32
64388;BME280;50709;52.648;4.764;2023-05-01T04:24:19;101666.59;;;15.40;60.28
64388;BME280;50709;52.648;4.764;2023-05-01T04:26:44;101656.13;;;15.30;60.37
64388;BME280;50709;52.648;4.764;2023-05-01T04:29:10;101664.00;;;15.29;59.92
64388;BME280;50709;52.648;4.764;2023-05-01T04:31:37;101659.72;;;15.09;59.99
64388;BME280;50709;52.648;4.764;2023-05-01T04:34:02;101654.44;;;15.09;60.63
64388;BME280;50709;52.648;4.764;2023-05-01T04:36:28;101655.38;;;14.90;60.82
64388;BME280;50709;52.648;4.764;2023-05-01T04:38:53;101661.50;;;14.96;60.59
64388;BME280;50709;52.648;4.764;2023-05-01T04:41:19;101644.88;;;14.87;60.96
64388;BME280;50709;52.648;4.764;2023-05-01T04:43:45;101654.44;;;15.09;60.48
64388;BME280;50709;52.648;4.764;2023-05-01T04:46:10;101660.59;;;15.07;61.03
64388;BME280;50709;52.648;4.764;2023-05-01T04:48:36;101647.53;;;14.74;60.95
64388;BME280;50709;52.648;4.764;2023-05-01T04:51:02;101659.81;;;14.75;61.90
64388;BME280;50709;52.648;4.764;2023-05-01T04:53:28;101644.06;;;14.65;61.61
64388;BME280;50709;52.648;4.764;2023-05-01T04:55:53;101653.69;;;14.33;62.06
64388;BME280;50709;52.648;4.764;2023-05-01T04:58:19;101645.81;;;14.67;62.29
64388;BME280;50709;52.648;4.764;2023-05-01T05:00:45;101649.31;;;14.66;62.36
64388;BME280;50709;52.648;4.764;2023-05-01T05:03:11;101653.66;;;14.76;61.84
64388;BME280;50709;52.648;4.764;2023-05-01T05:05:37;101638.75;;;14.72;62.09
64388;BME280;50709;52.648;4.764;2023-05-01T05:08:03;101640.50;;;14.76;61.91
64388;BME280;50709;52.648;4.764;2023-05-01T05:10:30;101645.78;;;14.79;62.40
64388;BME280;50709;52.648;4.764;2023-05-01T05:12:56;101648.41;;;14.62;62.83
64388;BME280;50709;52.648;4.764;2023-05-01T05:15:21;101636.13;;;14.80;62.72
64388;BME280;50709;52.648;4.764;2023-05-01T05:17:48;101643.13;;;14.86;62.20
64388;BME280;50709;52.648;4.764;2023-05-01T05:20:13;101652.72;;;15.01;62.46
64388;BME280;50709;52.648;4.764;2023-05-01T05:22:39;101650.16;;;14.76;62.73
64388;BME280;50709;52.648;4.764;2023-05-01T05:25:05;101642.25;;;14.84;62.35
64388;BME280;50709;52.648;4.764;2023-05-01T05:27:32;101644.84;;;14.90;62.80
64388;BME280;50709;52.648;4.764;2023-05-01T05:30:04;101629.91;;;15.04;62.19
64388;BME280;50709;52.648;4.764;2023-05-01T05:32:30;101636.88;;;15.10;61.88
64388;BME280;50709;52.648;4.764;2023-05-01T05:34:55;101646.63;;;14.95;62.40
64388;BME280;50709;52.648;4.764;2023-05-01T05:37:21;101648.38;;;14.83;62.27
64388;BME280;50709;52.648;4.764;2023-05-01T05:39:48;101626.50;;;14.80;62.12
64388;BME280;50709;52.648;4.764;2023-05-01T05:42:13;101650.09;;;15.04;61.57
64388;BME280;50709;52.648;4.764;2023-05-01T05:44:39;101635.91;;;15.33;61.58
64388;BME280;50709;52.648;4.764;2023-05-01T05:47:04;101647.22;;;15.56;60.99
64388;BME280;50709;52.648;4.764;2023-05-01T05:49:30;101647.25;;;15.47;60.76
64388;BME280;50709;52.648;4.764;2023-05-01T05:51:55;101648.88;;;15.68;60.36
64388;BME280;50709;52.648;4.764;2023-05-01T05:54:21;101638.34;;;15.68;60.41
64388;BME280;50709;52.648;4.764;2023-05-01T05:56:46;101640.88;;;15.88;59.86
64388;BME280;50709;52.648;4.764;2023-05-01T05:59:13;101635.72;;;15.67;59.95
64388;BME280;50709;52.648;4.764;2023-05-01T06:01:38;101637.81;;;15.03;60.70
64388;BME280;50709;52.648;4.764;2023-05-01T06:04:07;101631.69;;;14.97;60.70
64388;BME280;50709;52.648;4.764;2023-05-01T06:06:32;101634.34;;;14.94;61.54
64388;BME280;50709;52.648;4.764;2023-05-01T06:08:58;101636.78;;;15.33;60.69
64388;BME280;50709;52.648;4.764;2023-05-01T06:11:27;101621.84;;;15.44;60.04
64388;BME280;50709;52.648;4.764;2023-05-01T06:13:52;101613.94;;;15.44;59.45
64388;BME280;50709;52.648;4.764;2023-05-01T06:16:18;101622.69;;;15.46;59.60
64388;BME280;50709;52.648;4.764;2023-05-01T06:18:43;101612.97;;;15.59;58.60
64388;BME280;50709;52.648;4.764;2023-05-01T06:21:09;101627.09;;;15.40;57.30
64388;BME280;50709;52.648;4.764;2023-05-01T06:23:34;101623.78;;;14.97;58.44
64388;BME280;50709;52.648;4.764;2023-05-01T06:26:03;101632.50;;;15.20;57.85
64388;BME280;50709;52.648;4.764;2023-05-01T06:28:29;101612.25;;;15.29;58.62
64388;BME280;50709;52.648;4.764;2023-05-01T06:30:56;101626.78;;;15.97;57.58
64388;BME280;50709;52.648;4.764;2023-05-01T06:33:21;101628.66;;;15.81;57.89
64388;BME280;50709;52.648;4.764;2023-05-01T06:35:47;101620.53;;;16.07;56.60
64388;BME280;50709;52.648;4.764;2023-05-01T06:38:12;101624.94;;;16.05;56.92
64388;BME280;50709;52.648;4.764;2023-05-01T06:40:38;101619.75;;;15.96;56.82
64388;BME280;50709;52.648;4.764;2023-05-01T06:43:03;101612.78;;;15.90;56.01
64388;BME280;50709;52.648;4.764;2023-05-01T06:45:29;101624.81;;;16.21;57.00
64388;BME280;50709;52.648;4.764;2023-05-01T06:47:55;101611.00;;;15.95;56.13
64388;BME280;50709;52.648;4.764;2023-05-01T06:50:20;101610.00;;;16.09;56.99
64388;BME280;50709;52.648;4.764;2023-05-01T06:52:47;101616.13;;;16.11;57.21
64388;BME280;50709;52.648;4.764;2023-05-01T06:55:14;101609.16;;;16.04;56.93
64388;BME280;50709;52.648;4.764;2023-05-01T06:57:39;101622.50;;;15.84;56.39
64388;BME280;50709;52.648;4.764;2023-05-01T07:00:06;101604.09;;;15.73;57.82
64388;BME280;50709;52.648;4.764;2023-05-01T07:02:34;101618.22;;;15.59;57.06
64388;BME280;50709;52.648;4.764;2023-05-01T07:05:02;101605.13;;;15.48;57.92
64388;BME280;50709;52.648;4.764;2023-05-01T07:07:28;101611.78;;;16.05;58.21
64388;BME280;50709;52.648;4.764;2023-05-01T07:09:55;101603.97;;;15.90;58.04
64388;BME280;50709;52.648;4.764;2023-05-01T07:12:48;101603.81;;;16.14;57.73
64388;BME280;50709;52.648;4.764;2023-05-01T07:15:14;101608.28;;;16.06;57.34
64388;BME280;50709;52.648;4.764;2023-05-01T07:17:40;101616.53;;;15.47;58.03
64388;BME280;50709;52.648;4.764;2023-05-01T07:20:09;101620.72;;;15.79;58.15
64388;BME280;50709;52.648;4.764;2023-05-01T07:22:35;101609.34;;;15.82;57.81
64388;BME280;50709;52.648;4.764;2023-05-01T07:25:06;101611.75;;;16.08;58.39
64388;BME280;50709;52.648;4.764;2023-05-01T07:27:32;101604.88;;;15.92;58.45
64388;BME280;50709;52.648;4.764;2023-05-01T07:29:59;101591.78;;;15.78;58.84
64388;BME280;50709;52.648;4.764;2023-05-01T07:32:25;101609.22;;;15.96;58.47
64388;BME280;50709;52.648;4.764;2023-05-01T07:34:50;101619.22;;;15.40;58.69
64388;BME280;50709;52.648;4.764;2023-05-01T07:37:16;101621.78;;;15.51;59.30
64388;BME280;50709;52.648;4.764;2023-05-01T07:40:01;101617.59;;;15.17;59.19
64388;BME280;50709;52.648;4.764;2023-05-01T07:42:27;101608.66;;;15.44;59.53
64388;BME280;50709;52.648;4.764;2023-05-01T07:44:53;101619.03;;;15.68;59.92
64388;BME280;50709;52.648;4.764;2023-05-01T07:47:19;101616.34;;;15.85;59.82
64388;BME280;50709;52.648;4.764;2023-05-01T07:49:46;101607.38;;;16.06;58.98
64388;BME280;50709;52.648;4.764;2023-05-01T07:52:12;101618.69;;;16.19;58.35
64388;BME280;50709;52.648;4.764;2023-05-01T07:54:37;101618.06;;;15.86;58.26
64388;BME280;50709;52.648;4.764;2023-05-01T07:57:26;101612.53;;;16.20;58.04
64388;BME280;50709;52.648;4.764;2023-05-01T07:59:54;101602.09;;;16.09;57.90
64388;BME280;50709;52.648;4.764;2023-05-01T08:02:21;101609.06;;;16.16;57.92
64388;BME280;50709;52.648;4.764;2023-05-01T08:04:47;101607.41;;;16.03;57.01
64388;BME280;50709;52.648;4.764;2023-05-01T08:07:13;101611.50;;;16.36;56.58
64388;BME280;50709;52.648;4.764;2023-05-01T08:09:39;101608.75;;;16.47;56.44
64388;BME280;50709;52.648;4.764;2023-05-01T08:12:25;101607.06;;;16.43;55.33
64388;BME280;50709;52.648;4.764;2023-05-01T08:14:51;101615.59;;;16.65;55.88
64388;BME280;50709;52.648;4.764;2023-05-01T08:17:18;101626.75;;;16.92;55.45
64388;BME280;50709;52.648;4.764;2023-05-01T08:19:44;101624.19;;;16.82;54.07
64388;BME280;50709;52.648;4.764;2023-05-01T08:22:10;101628.53;;;16.91;54.64
64388;BME280;50709;52.648;4.764;2023-05-01T08:24:37;101636.19;;;17.13;55.25
64388;BME280;50709;52.648;4.764;2023-05-01T08:27:02;101636.91;;;17.26;54.79
64388;BME280;50709;52.648;4.764;2023-05-01T08:29:28;101629.38;;;16.93;55.01
64388;BME280;50709;52.648;4.764;2023-05-01T08:31:55;101646.56;;;17.27;55.35
64388;BME280;50709;52.648;4.764;2023-05-01T08:34:41;101630.69;;;17.28;55.12
64388;BME280;50709;52.648;4.764;2023-05-01T08:37:07;101637.56;;;17.42;55.14
64388;BME280;50709;52.648;4.764;2023-05-01T08:39:35;101632.22;;;17.45;54.41
64388;BME280;50709;52.648;4.764;2023-05-01T08:42:01;101633.75;;;17.63;54.33
64388;BME280;50709;52.648;4.764;2023-05-01T08:44:29;101643.50;;;17.59;54.09
64388;BME280;50709;52.648;4.764;2023-05-01T08:46:59;101647.38;;;17.32;54.58
64388;BME280;50709;52.648;4.764;2023-05-01T08:49:33;101645.50;;;17.40;54.95
64388;BME280;50709;52.648;4.764;2023-05-01T08:52:05;101639.94;;;17.62;54.02
64388;BME280;50709;52.648;4.764;2023-05-01T08:54:30;101621.91;;;17.28;54.40
64388;BME280;50709;52.648;4.764;2023-05-01T08:57:01;101619.84;;;17.50;54.65
64388;BME280;50709;52.648;4.764;2023-05-01T08:59:37;101644.28;;;17.64;54.70
64388;BME280;50709;52.648;4.764;2023-05-01T09:02:06;101648.13;;;17.42;54.82
64388;BME280;50709;52.648;4.764;2023-05-01T09:04:34;101649.00;;;17.44;55.11
64388;BME280;50709;52.648;4.764;2023-05-01T09:07:00;101645.22;;;17.62;54.74
64388;BME280;50709;52.648;4.764;2023-05-01T09:09:29;101643.56;;;17.55;55.05
64388;BME280;50709;52.648;4.764;2023-05-01T09:11:55;101636.97;;;17.83;54.51
64388;BME280;50709;52.648;4.764;2023-05-01T09:14:23;101624.91;;;17.65;53.54
64388;BME280;50709;52.648;4.764;2023-05-01T09:16:49;101647.84;;;17.62;54.09
64388;BME280;50709;52.648;4.764;2023-05-01T09:19:14;101629.31;;;17.65;53.92
64388;BME280;50709;52.648;4.764;2023-05-01T09:21:40;101642.38;;;17.74;53.57
64388;BME280;50709;52.648;4.764;2023-05-01T09:24:26;101638.34;;;17.48;52.92
64388;BME280;50709;52.648;4.764;2023-05-01T09:26:52;101640.72;;;17.69;53.76
64388;BME280;50709;52.648;4.764;2023-05-01T09:32:17;101644.28;;;17.64;52.42
64388;BME280;50709;52.648;4.764;2023-05-01T09:34:48;101644.81;;;17.88;52.37
64388;BME280;50709;52.648;4.764;2023-05-01T09:37:34;101631.66;;;17.85;52.83
64388;BME280;50709;52.648;4.764;2023-05-01T09:40:04;101619.78;;;17.56;50.92
64388;BME280;50709;52.648;4.764;2023-05-01T09:42:51;101622.28;;;17.65;51.72
64388;BME280;50709;52.648;4.764;2023-05-01T09:45:17;101638.03;;;17.70;52.65
64388;BME280;50709;52.648;4.764;2023-05-01T09:47:44;101626.63;;;17.70;51.46
64388;BME280;50709;52.648;4.764;2023-05-01T09:50:30;101635.91;;;17.97;52.12
64388;BME280;50709;52.648;4.764;2023-05-01T09:52:56;101634.94;;;18.03;51.99
64388;BME280;50709;52.648;4.764;2023-05-01T09:55:22;101629.81;;;17.92;49.89
64388;BME280;50709;52.648;4.764;2023-05-01T09:57:48;101629.59;;;18.06;51.62
64388;BME280;50709;52.648;4.764;2023-05-01T10:00:15;101632.22;;;18.07;50.32
64388;BME280;50709;52.648;4.764;2023-05-01T10:02:43;101640.81;;;18.20;52.39
64388;BME280;50709;52.648;4.764;2023-05-01T10:05:15;101638.09;;;18.25;51.54
64388;BME280;50709;52.648;4.764;2023-05-01T10:08:01;101633.63;;;18.28;50.38
64388;BME280;50709;52.648;4.764;2023-05-01T10:10:28;101644.88;;;18.41;50.01
64388;BME280;50709;52.648;4.764;2023-05-01T10:12:54;101646.41;;;18.52;50.27
64388;BME280;50709;52.648;4.764;2023-05-01T10:15:21;101649.19;;;18.45;50.57
64388;BME280;50709;52.648;4.764;2023-05-01T10:17:49;101613.34;;;18.27;50.47
64388;BME280;50709;52.648;4.764;2023-05-01T10:20:17;101646.56;;;18.45;51.21
64388;BME280;50709;52.648;4.764;2023-05-01T10:23:02;101645.91;;;18.79;50.63
64388;BME280;50709;52.648;4.764;2023-05-01T10:25:28;101647.03;;;18.66;49.57
64388;BME280;50709;52.648;4.764;2023-05-01T10:27:54;101655.72;;;18.74;51.33
64388;BME280;50709;52.648;4.764;2023-05-01T10:30:21;101649.53;;;18.75;50.54
64388;BME280;50709;52.648;4.764;2023-05-01T10:32:48;101652.72;;;18.94;50.62
64388;BME280;50709;52.648;4.764;2023-05-01T10:35:33;101661.63;;;18.90;50.15
64388;BME280;50709;52.648;4.764;2023-05-01T10:38:18;101649.03;;;19.02;50.08
64388;BME280;50709;52.648;4.764;2023-05-01T10:40:48;101666.44;;;19.13;50.28
64388;BME280;50709;52.648;4.764;2023-05-01T10:43:34;101659.31;;;19.17;50.46
64388;BME280;50709;52.648;4.764;2023-05-01T10:53:36;101658.00;;;19.38;49.32
64388;BME280;50709;52.648;4.764;2023-05-01T10:56:02;101668.00;;;19.24;50.59
64388;BME280;50709;52.648;4.764;2023-05-01T11:01:36;101657.25;;;19.30;50.18
64388;BME280;50709;52.648;4.764;2023-05-01T11:09:37;101656.31;;;19.34;50.06
64388;BME280;50709;52.648;4.764;2023-05-01T11:12:03;101644.81;;;19.35;50.00
64388;BME280;50709;52.648;4.764;2023-05-01T11:17:50;101664.50;;;19.64;49.14
64388;BME280;50709;52.648;4.764;2023-05-01T11:22:55;101652.44;;;19.50;48.89
64388;BME280;50709;52.648;4.764;2023-05-01T11:25:25;101657.50;;;19.21;46.89
64388;BME280;50709;52.648;4.764;2023-05-01T11:27:53;101652.72;;;19.38;47.95
64388;BME280;50709;52.648;4.764;2023-05-01T11:30:20;101648.09;;;19.46;49.14
64388;BME280;50709;52.648;4.764;2023-05-01T11:32:47;101640.66;;;19.22;49.59
64388;BME280;50709;52.648;4.764;2023-05-01T11:35:17;101653.91;;;19.64;48.64
64388;BME280;50709;52.648;4.764;2023-05-01T11:37:43;101621.50;;;19.51;48.54
64388;BME280;50709;52.648;4.764;2023-05-01T11:40:25;101652.34;;;19.54;48.03
64388;BME280;50709;52.648;4.764;2023-05-01T11:42:59;101660.13;;;19.61;49.37
64388;BME280;50709;52.648;4.764;2023-05-01T11:45:25;101657.16;;;19.75;49.14
64388;BME280;50709;52.648;4.764;2023-05-01T11:47:52;101659.00;;;19.73;49.05
64388;BME280;50709;52.648;4.764;2023-05-01T11:50:17;101650.09;;;19.74;49.15
64388;BME280;50709;52.648;4.764;2023-05-01T11:52:46;101646.88;;;19.61;48.99
64388;BME280;50709;52.648;4.764;2023-05-01T11:55:17;101646.50;;;19.38;48.71
64388;BME280;50709;52.648;4.764;2023-05-01T11:57:50;101619.22;;;19.36;49.65
64388;BME280;50709;52.648;4.764;2023-05-01T12:00:26;101649.38;;;19.67;48.36
64388;BME280;50709;52.648;4.764;2023-05-01T12:02:57;101627.69;;;19.50;49.90
64388;BME280;50709;52.648;4.764;2023-05-01T12:05:24;101632.53;;;19.70;49.32
64388;BME280;50709;52.648;4.764;2023-05-01T12:07:50;101633.72;;;19.57;47.81
64388;BME280;50709;52.648;4.764;2023-05-01T12:10:16;101628.50;;;19.54;48.66
64388;BME280;50709;52.648;4.764;2023-05-01T12:12:42;101634.38;;;19.68;47.84
64388;BME280;50709;52.648;4.764;2023-05-01T12:15:08;101633.78;;;19.55;47.92
64388;BME280;50709;52.648;4.764;2023-05-01T12:17:35;101623.19;;;19.14;48.39
64388;BME280;50709;52.648;4.764;2023-05-01T12:20:00;101645.25;;;19.56;49.52
64388;BME280;50709;52.648;4.764;2023-05-01T12:22:26;101638.50;;;19.80;48.37
64388;BME280;50709;52.648;4.764;2023-05-01T12:24:54;101639.97;;;19.93;47.48
64388;BME280;50709;52.648;4.764;2023-05-01T12:27:21;101636.38;;;19.96;48.74
64388;BME280;50709;52.648;4.764;2023-05-01T12:30:06;101647.03;;;19.94;48.68
64388;BME280;50709;52.648;4.764;2023-05-01T12:32:32;101634.94;;;19.82;46.38
64388;BME280;50709;52.648;4.764;2023-05-01T12:34:58;101630.47;;;19.85;46.94
64388;BME280;50709;52.648;4.764;2023-05-01T12:37:29;101647.28;;;19.83;48.39
64388;BME280;50709;52.648;4.764;2023-05-01T12:39:56;101636.59;;;19.87;45.73
64388;BME280;50709;52.648;4.764;2023-05-01T12:42:21;101625.78;;;19.96;47.62
64388;BME280;50709;52.648;4.764;2023-05-01T12:44:46;101636.22;;;20.02;46.99
64388;BME280;50709;52.648;4.764;2023-05-01T12:47:12;101635.28;;;20.05;48.16
64388;BME280;50709;52.648;4.764;2023-05-01T12:49:38;101639.41;;;20.16;47.63
64388;BME280;50709;52.648;4.764;2023-05-01T12:52:05;101639.16;;;20.26;47.28
64388;BME280;50709;52.648;4.764;2023-05-01T12:54:34;101604.59;;;19.94;46.83
64388;BME280;50709;52.648;4.764;2023-05-01T12:59:35;101642.03;;;20.18;48.21
64388;BME280;50709;52.648;4.764;2023-05-01T13:02:04;101623.69;;;20.09;46.33
64388;BME280;50709;52.648;4.764;2023-05-01T13:04:30;101615.66;;;20.12;47.47
64388;BME280;50709;52.648;4.764;2023-05-01T13:06:57;101625.50;;;20.08;46.22
64388;BME280;50709;52.648;4.764;2023-05-01T13:09:24;101607.88;;;20.04;45.39
64388;BME280;50709;52.648;4.764;2023-05-01T13:12:01;101634.78;;;20.25;47.52
64388;BME280;50709;52.648;4.764;2023-05-01T13:14:34;101636.44;;;20.29;45.82
64388;BME280;50709;52.648;4.764;2023-05-01T13:17:01;101633.19;;;20.17;47.13
64388;BME280;50709;52.648;4.764;2023-05-01T13:19:27;101633.22;;;20.16;45.33
64388;BME280;50709;52.648;4.764;2023-05-01T13:21:54;101642.84;;;20.20;47.44
64388;BME280;50709;52.648;4.764;2023-05-01T13:24:20;101628.91;;;20.12;46.69
64388;BME280;50709;52.648;4.764;2023-05-01T13:26:46;101641.81;;;20.26;47.41
64388;BME280;50709;52.648;4.764;2023-05-01T13:29:15;101649.09;;;20.17;48.50
64388;BME280;50709;52.648;4.764;2023-05-01T13:31:44;101632.00;;;20.29;47.18
64388;BME280;50709;52.648;4.764;2023-05-01T13:34:09;101666.47;;;19.93;48.41
64388;BME280;50709;52.648;4.764;2023-05-01T13:36:35;101659.97;;;20.07;47.64
64388;BME280;50709;52.648;4.764;2023-05-01T13:39:04;101658.09;;;20.12;48.33
64388;BME280;50709;52.648;4.764;2023-05-01T13:41:30;101678.47;;;20.10;48.07
64388;BME280;50709;52.648;4.764;2023-05-01T13:43:55;101683.19;;;19.97;48.46